Time;durP1;ratioP1;P1;durP2;ratioP2;P2;SDS_P1;SDS_P2;PMS_P1;PMS_P2;Temp;Humidity;BMP_temperature;BMP_pressure;BME280_temperature;BME280_humidity;BME280_pressure;Samples;Min_cycle;Max_cycle;Signal;HPM_P1;HPM_P2
2023/12/26 00:00:51;;;;;;;0.00;0.00;;;;;;;10.65;100.00;98471.81;5154604;27;20192;-52
2023/12/26 00:03:38;;;;;;;0.00;0.00;;;;;;;10.68;100.00;98472.41;5154600;27;20659;-52
2023/12/26 00:06:24;;;;;;;0.10;0.10;;;;;;;10.71;100.00;98469.53;5151230;27;20188;-52
2023/12/26 00:09:12;;;;;;;0.00;0.00;;;;;;;10.61;100.00;98468.53;5154524;27;20207;-52
2023/12/26 00:11:59;;;;;;;0.00;0.00;;;;;;;10.74;100.00;98458.72;5154516;27;20204;-52
2023/12/26 00:14:46;;;;;;;0.00;0.00;;;;;;;10.97;100.00;98458.75;5153829;27;20254;-52
2023/12/26 00:17:35;;;;;;;0.10;0.10;;;;;;;11.10;100.00;98452.41;5153486;27;20188;-52
2023/12/26 00:20:21;;;;;;;0.10;0.10;;;;;;;11.17;100.00;98442.16;5151015;27;20224;-52
2023/12/26 00:23:08;;;;;;;0.00;0.00;;;;;;;11.29;100.00;98440.34;5154429;27;20250;-52
2023/12/26 00:25:55;;;;;;;0.00;0.00;;;;;;;11.35;100.00;98429.25;5152376;27;20200;-52
2023/12/26 00:28:42;;;;;;;0.00;0.00;;;;;;;11.34;100.00;98427.56;5153628;27;20192;-52
2023/12/26 00:31:29;;;;;;;0.00;0.00;;;;;;;11.39;100.00;98428.91;5154234;27;20242;-52
2023/12/26 00:34:17;;;;;;;0.00;0.00;;;;;;;11.42;100.00;98418.06;5153987;27;20197;-52
2023/12/26 00:37:04;;;;;;;0.00;0.00;;;;;;;11.37;100.00;98412.25;5153380;27;20682;-52
2023/12/26 00:39:50;;;;;;;0.00;0.00;;;;;;;11.39;100.00;98414.81;5154036;27;20181;-52
2023/12/26 00:42:37;;;;;;;0.00;0.00;;;;;;;11.42;100.00;98407.44;5152878;27;20263;-52
2023/12/26 00:45:25;;;;;;;0.00;0.00;;;;;;;11.42;100.00;98407.44;5153899;27;20193;-51
2023/12/26 00:48:13;;;;;;;0.10;0.10;;;;;;;11.41;100.00;98421.66;5153158;27;20310;-52
2023/12/26 00:51:02;;;;;;;0.10;0.10;;;;;;;11.44;100.00;98415.28;5150482;27;20220;-52
2023/12/26 00:53:50;;;;;;;0.00;0.00;;;;;;;11.46;100.00;98416.00;5152103;27;20683;-52
2023/12/26 00:56:37;;;;;;;0.00;0.00;;;;;;;11.47;100.00;98413.22;5153183;27;20261;-52
2023/12/26 00:59:24;;;;;;;0.00;0.00;;;;;;;11.43;100.00;98398.53;5154673;27;20192;-52
2023/12/26 01:02:11;;;;;;;0.00;0.00;;;;;;;11.42;100.00;98409.25;5154560;27;20258;-51
2023/12/26 01:04:58;;;;;;;0.00;0.00;;;;;;;11.43;100.00;98411.78;5155824;27;20191;-52
2023/12/26 01:07:48;;;;;;;0.00;0.00;;;;;;;11.42;100.00;98402.16;5157736;27;20196;-52
2023/12/26 01:10:35;;;;;;;0.10;0.10;;;;;;;11.44;100.00;98412.63;5158400;27;20221;-52
2023/12/26 01:13:22;;;;;;;0.00;0.00;;;;;;;11.43;100.00;98395.03;5157712;27;20216;-52
2023/12/26 01:16:09;;;;;;;0.00;0.00;;;;;;;11.45;100.00;98411.66;5157620;27;20213;-52
2023/12/26 01:18:56;;;;;;;0.10;0.10;;;;;;;11.41;100.00;98415.53;5158192;27;20232;-52
2023/12/26 01:21:43;;;;;;;0.00;0.00;;;;;;;11.44;100.00;98407.31;5157220;27;20685;-52
2023/12/26 01:24:31;;;;;;;0.00;0.00;;;;;;;11.41;100.00;98408.41;5158600;27;20192;-52
2023/12/26 01:27:18;;;;;;;0.00;0.00;;;;;;;11.37;100.00;98395.50;5158312;27;20674;-52
2023/12/26 01:30:07;;;;;;;0.10;0.10;;;;;;;11.38;100.00;98403.34;5157286;27;20216;-52
2023/12/26 01:32:53;;;;;;;0.00;0.00;;;;;;;11.33;100.00;98410.81;5158270;27;20189;-53
2023/12/26 01:35:41;;;;;;;0.10;0.10;;;;;;;11.29;100.00;98409.41;5156768;27;20204;-52
2023/12/26 01:38:28;;;;;;;0.00;0.00;;;;;;;11.28;100.00;98420.94;5157267;27;20198;-52
2023/12/26 01:41:17;;;;;;;0.10;0.10;;;;;;;11.27;100.00;98413.09;5157246;27;20310;-52
2023/12/26 01:44:04;;;;;;;0.10;0.10;;;;;;;11.28;100.00;98420.94;5156839;27;20277;-52
2023/12/26 01:46:51;;;;;;;0.10;0.10;;;;;;;11.28;100.00;98431.53;5158053;27;20197;-52
2023/12/26 01:49:39;;;;;;;0.00;0.00;;;;;;;11.28;100.00;98428.03;5155641;27;20201;-52
2023/12/26 01:52:28;;;;;;;0.00;0.00;;;;;;;11.28;100.00;98430.69;5157926;27;20239;-52
2023/12/26 01:55:17;;;;;;;0.00;0.00;;;;;;;11.24;100.00;98419.50;5158072;27;20197;-52
2023/12/26 01:58:07;;;;;;;0.10;0.10;;;;;;;11.24;100.00;98414.19;5156811;27;20667;-52
2023/12/26 02:00:54;;;;;;;0.00;0.00;;;;;;;11.15;100.00;98413.13;5156710;27;20542;-52
2023/12/26 02:03:42;;;;;;;0.10;0.10;;;;;;;11.21;100.00;98414.44;5157840;27;20195;-52
2023/12/26 02:06:31;;;;;;;0.10;0.10;;;;;;;11.21;100.00;98413.63;5156429;27;20684;-52
2023/12/26 02:09:18;;;;;;;0.03;0.03;;;;;;;11.27;100.00;98411.31;5157482;27;20189;-52
2023/12/26 02:12:06;;;;;;;0.00;0.00;;;;;;;11.21;100.00;98410.97;5157351;27;20304;-52
2023/12/26 02:14:54;;;;;;;0.00;0.00;;;;;;;11.25;100.00;98413.22;5156257;27;20263;-52
2023/12/26 02:17:42;;;;;;;0.10;0.10;;;;;;;11.23;100.00;98406.38;5157570;27;20466;-52
2023/12/26 02:20:29;;;;;;;0.00;0.00;;;;;;;11.25;100.00;98397.34;5156236;27;20185;-52
2023/12/26 02:23:16;;;;;;;0.00;0.00;;;;;;;11.20;100.00;98402.16;5157497;27;20185;-52
2023/12/26 02:26:06;;;;;;;0.00;0.00;;;;;;;11.22;100.00;98410.84;5155930;27;20193;-52
2023/12/26 02:28:54;;;;;;;0.10;0.10;;;;;;;11.12;100.00;98397.47;5156296;27;20193;-52
2023/12/26 02:31:42;;;;;;;0.00;0.00;;;;;;;11.08;100.00;98411.06;5156973;27;20209;-52
2023/12/26 02:34:30;;;;;;;0.00;0.00;;;;;;;10.95;100.00;98415.63;5155874;27;20189;-52
2023/12/26 02:37:17;;;;;;;0.10;0.10;;;;;;;10.77;100.00;98417.88;5157060;27;20677;-52
2023/12/26 02:40:05;;;;;;;0.10;0.10;;;;;;;10.76;100.00;98430.28;5156089;27;20269;-52
2023/12/26 02:42:53;;;;;;;0.00;0.00;;;;;;;10.75;100.00;98431.25;5157067;27;20261;-52
2023/12/26 02:45:41;;;;;;;0.00;0.00;;;;;;;10.72;100.00;98426.19;5156952;27;20197;-52
2023/12/26 02:48:28;;;;;;;0.10;0.10;;;;;;;10.44;100.00;98445.13;5157131;27;20184;-52
2023/12/26 02:51:15;;;;;;;0.10;0.10;;;;;;;10.18;100.00;98441.75;5154269;27;20607;-52
2023/12/26 02:54:02;;;;;;;0.00;0.00;;;;;;;10.06;100.00;98451.44;5156598;27;20270;-51
2023/12/26 02:56:49;;;;;;;0.00;0.00;;;;;;;10.02;100.00;98457.88;5156780;27;20196;-52
2023/12/26 02:59:37;;;;;;;0.10;0.10;;;;;;;9.94;100.00;98450.53;5156668;27;20273;-52
2023/12/26 03:02:24;;;;;;;0.10;0.10;;;;;;;9.83;100.00;98450.44;5156670;27;20259;-52
2023/12/26 03:05:11;;;;;;;0.00;0.00;;;;;;;9.83;100.00;98446.94;5155209;27;20242;-52
2023/12/26 03:08:00;;;;;;;0.00;0.00;;;;;;;9.84;100.00;98453.94;5156523;27;20263;-52
2023/12/26 03:10:47;;;;;;;0.00;0.00;;;;;;;9.89;100.00;98447.38;5156427;27;20254;-52
2023/12/26 03:13:33;;;;;;;0.10;0.10;;;;;;;9.98;100.00;98457.28;5156288;27;20200;-51
2023/12/26 03:16:22;;;;;;;0.10;0.10;;;;;;;10.06;100.00;98451.44;5156311;27;20185;-52
2023/12/26 03:19:08;;;;;;;0.00;0.00;;;;;;;10.11;100.00;98425.47;5155993;27;20224;-52
2023/12/26 03:21:55;;;;;;;0.00;0.00;;;;;;;10.20;100.00;98430.06;5156038;27;20222;-52
2023/12/26 03:24:42;;;;;;;0.10;0.10;;;;;;;10.25;100.00;98430.63;5156076;27;20705;-52
2023/12/26 03:27:30;;;;;;;0.10;0.10;;;;;;;10.28;100.00;98433.03;5155592;27;20679;-52
2023/12/26 03:30:17;;;;;;;0.10;0.10;;;;;;;10.35;100.00;98424.66;5155772;27;20185;-52
2023/12/26 03:33:06;;;;;;;0.10;0.10;;;;;;;10.36;100.00;98427.16;5156036;27;20189;-51
2023/12/26 03:35:53;;;;;;;0.07;0.07;;;;;;;10.35;100.00;98432.59;5154752;27;20548;-52
2023/12/26 03:38:43;;;;;;;0.10;0.10;;;;;;;10.40;100.00;98433.91;5154733;27;20185;-52
2023/12/26 03:41:30;;;;;;;0.00;0.00;;;;;;;10.38;100.00;98417.31;5155958;27;20192;-52
2023/12/26 03:44:17;;;;;;;0.00;0.00;;;;;;;10.38;100.00;98435.84;5154779;27;20188;-52
2023/12/26 03:47:04;;;;;;;0.10;0.10;;;;;;;10.41;100.00;98434.75;5155293;27;20203;-52
2023/12/26 03:49:52;;;;;;;0.00;0.00;;;;;;;10.37;100.00;98423.56;5154595;27;20209;-52
2023/12/26 03:52:39;;;;;;;0.00;0.00;;;;;;;10.41;100.00;98430.31;5154439;27;20216;-52
2023/12/26 03:55:26;;;;;;;0.10;0.10;;;;;;;10.42;100.00;98428.50;5154406;27;20188;-51
2023/12/26 03:58:13;;;;;;;0.00;0.00;;;;;;;10.42;100.00;98431.16;5154541;27;20235;-52
2023/12/26 04:01:00;;;;;;;0.10;0.10;;;;;;;10.38;100.00;98419.13;5155468;27;20286;-52
2023/12/26 04:03:47;;;;;;;0.00;0.00;;;;;;;10.40;100.00;98419.84;5154354;27;20200;-52
2023/12/26 04:06:35;;;;;;;0.00;0.00;;;;;;;10.40;100.00;98423.31;5152945;27;20207;-52
2023/12/26 04:09:23;;;;;;;0.00;0.00;;;;;;;10.42;100.00;98431.16;5154437;27;20196;-52
2023/12/26 04:12:10;;;;;;;0.00;0.00;;;;;;;10.32;100.00;98423.03;5153898;27;20225;-51
2023/12/26 04:14:57;;;;;;;0.00;0.00;;;;;;;10.31;100.00;98429.31;5154203;27;20241;-52
2023/12/26 04:17:44;;;;;;;0.10;0.10;;;;;;;10.28;100.00;98429.53;5155211;27;20682;-52
2023/12/26 04:20:31;;;;;;;0.10;0.10;;;;;;;10.24;100.00;98426.28;5152602;27;20238;-52
2023/12/26 04:23:19;;;;;;;0.07;0.07;;;;;;;10.25;100.00;98437.72;5155119;27;20273;-52
2023/12/26 04:26:07;;;;;;;0.10;0.10;;;;;;;10.27;100.00;98441.09;5154039;27;20196;-52
2023/12/26 04:28:54;;;;;;;0.00;0.00;;;;;;;10.25;100.00;98443.84;5154912;27;20286;-51
2023/12/26 04:31:41;;;;;;;0.00;0.00;;;;;;;10.25;100.00;98459.72;5154879;27;20217;-52
2023/12/26 04:34:28;;;;;;;0.00;0.00;;;;;;;10.20;100.00;98451.25;5152557;27;20192;-52
2023/12/26 04:37:14;;;;;;;0.00;0.00;;;;;;;10.18;100.00;98457.63;5153413;27;20215;-53
2023/12/26 04:40:03;;;;;;;0.00;0.00;;;;;;;10.17;100.00;98453.28;5153547;27;20200;-52
2023/12/26 04:42:51;;;;;;;0.10;0.10;;;;;;;10.14;100.00;98459.66;5153845;27;20663;-52
2023/12/26 04:45:38;;;;;;;0.00;0.00;;;;;;;10.16;100.00;98464.81;5153581;27;20197;-52
2023/12/26 04:48:24;;;;;;;0.00;0.00;;;;;;;10.12;100.00;98466.00;5153757;27;20200;-52
2023/12/26 04:51:16;;;;;;;0.00;0.00;;;;;;;10.05;100.00;98465.63;5153298;27;20273;-52
2023/12/26 04:54:02;;;;;;;0.10;0.10;;;;;;;10.02;100.00;98468.47;5153649;27;20193;-52
2023/12/26 04:56:51;;;;;;;0.10;0.10;;;;;;;10.05;100.00;98478.84;5153519;27;20642;-52
2023/12/26 04:59:38;;;;;;;0.07;0.07;;;;;;;10.04;100.00;98470.06;5154618;27;20336;-52
2023/12/26 05:02:25;;;;;;;0.03;0.03;;;;;;;9.97;100.00;98475.91;5153596;27;20197;-52
2023/12/26 05:05:12;;;;;;;0.10;0.10;;;;;;;9.96;100.00;98475.06;5153343;27;20200;-52
2023/12/26 05:07:59;;;;;;;0.00;0.00;;;;;;;9.99;100.00;98482.78;5153392;27;20188;-52
2023/12/26 05:10:46;;;;;;;0.10;0.10;;;;;;;9.90;100.00;98478.13;5153391;27;20192;-52
2023/12/26 05:13:34;;;;;;;0.00;0.00;;;;;;;9.89;100.00;98476.47;5154334;27;20651;-52
2023/12/26 05:16:21;;;;;;;0.10;0.10;;;;;;;9.90;100.00;98482.59;5154513;27;20300;-52
2023/12/26 05:19:08;;;;;;;0.10;0.10;;;;;;;9.83;100.00;98490.09;5153234;27;20220;-52
2023/12/26 05:21:55;;;;;;;0.03;0.03;;;;;;;9.82;100.00;98488.41;5153415;27;20218;-52
2023/12/26 05:24:44;;;;;;;0.10;0.10;;;;;;;9.81;100.00;98501.75;5153418;27;20196;-53
2023/12/26 05:27:40;;;;;;;0.10;0.10;;;;;;;9.86;100.00;98497.84;5153368;27;20196;-52
2023/12/26 05:30:29;;;;;;;0.00;0.00;;;;;;;9.79;100.00;98508.97;5154345;27;20196;-52
2023/12/26 05:33:16;;;;;;;0.10;0.10;;;;;;;9.87;100.00;98515.41;5152962;27;20212;-52
2023/12/26 05:36:04;;;;;;;0.10;0.10;;;;;;;9.87;100.00;98522.50;5151957;27;20200;-52
2023/12/26 05:38:51;;;;;;;0.00;0.00;;;;;;;9.81;100.00;98521.13;5153295;27;20649;-52
2023/12/26 05:41:41;;;;;;;0.10;0.10;;;;;;;9.94;100.00;98529.00;5153026;27;20205;-53
2023/12/26 05:44:29;;;;;;;0.00;0.00;;;;;;;9.92;100.00;98523.00;5153258;27;20193;-52
2023/12/26 05:47:20;;;;;;;0.00;0.00;;;;;;;9.94;100.00;98534.31;5153253;27;20193;-52
2023/12/26 05:50:08;;;;;;;0.00;0.00;;;;;;;9.85;100.00;98535.00;5153611;27;20195;-52
2023/12/26 05:52:55;;;;;;;0.10;0.10;;;;;;;9.81;100.00;98531.69;5156747;27;20232;-52
2023/12/26 05:55:42;;;;;;;0.10;0.10;;;;;;;9.89;100.00;98539.94;5157945;27;20188;-52
2023/12/26 05:58:29;;;;;;;0.10;0.10;;;;;;;9.93;100.00;98538.75;5157758;27;20299;-52
2023/12/26 06:01:17;;;;;;;0.10;0.10;;;;;;;9.84;100.00;98546.50;5156785;27;20195;-52
2023/12/26 06:04:05;;;;;;;0.00;0.00;;;;;;;9.82;100.00;98558.97;5157747;27;20266;-52
2023/12/26 06:06:52;;;;;;;0.00;0.00;;;;;;;9.88;100.00;98559.41;5156466;27;20225;-52
2023/12/26 06:09:39;;;;;;;0.00;0.00;;;;;;;9.91;100.00;98568.91;5156699;27;20196;-52
2023/12/26 06:12:28;;;;;;;0.00;0.00;;;;;;;9.88;100.00;98572.63;5157580;27;20312;-52
2023/12/26 06:15:15;;;;;;;0.00;0.00;;;;;;;9.91;100.00;98577.69;5156410;27;20201;-52
2023/12/26 06:18:01;;;;;;;0.10;0.10;;;;;;;9.92;100.00;98560.03;5157306;27;20239;-52
2023/12/26 06:20:51;;;;;;;0.00;0.00;;;;;;;9.90;100.00;98589.25;5155122;27;20193;-52
2023/12/26 06:23:38;;;;;;;0.00;0.00;;;;;;;9.82;100.00;98580.16;5156224;27;20231;-52
2023/12/26 06:26:25;;;;;;;0.10;0.10;;;;;;;9.91;100.00;98588.28;5156353;27;20227;-52
2023/12/26 06:29:12;;;;;;;0.10;0.10;;;;;;;9.93;100.00;98589.00;5156261;27;20193;-52
2023/12/26 06:31:59;;;;;;;0.00;0.00;;;;;;;9.95;100.00;98591.56;5155950;27;20702;-52
2023/12/26 06:34:46;;;;;;;0.00;0.00;;;;;;;9.93;100.00;98599.59;5154773;27;20271;-52
2023/12/26 06:37:35;;;;;;;0.00;0.00;;;;;;;9.94;100.00;98595.16;5156050;27;20201;-52
2023/12/26 06:40:22;;;;;;;0.00;0.00;;;;;;;9.93;100.00;98602.22;5155977;27;20209;-51
2023/12/26 06:43:10;;;;;;;0.00;0.00;;;;;;;9.97;100.00;98606.38;5157015;27;20188;-52
2023/12/26 06:45:57;;;;;;;0.07;0.07;;;;;;;9.94;100.00;98611.00;5155952;27;20197;-52
2023/12/26 06:48:44;;;;;;;0.10;0.10;;;;;;;10.06;100.00;98606.69;5155844;27;20197;-52
2023/12/26 06:51:31;;;;;;;0.00;0.00;;;;;;;10.02;100.00;98621.91;5154615;27;20193;-52
2023/12/26 06:54:20;;;;;;;0.00;0.00;;;;;;;10.01;100.00;98628.16;5156586;27;20330;-52
2023/12/26 06:57:08;;;;;;;0.10;0.10;;;;;;;9.99;100.00;98638.00;5155796;27;20212;-52
2023/12/26 06:59:56;;;;;;;0.10;0.10;;;;;;;9.98;100.00;98633.69;5155699;27;20305;-52
2023/12/26 07:02:43;;;;;;;0.00;0.00;;;;;;;10.06;100.00;98641.09;5154958;27;20264;-52
2023/12/26 07:05:30;;;;;;;0.00;0.00;;;;;;;10.04;100.00;98646.47;5154266;27;20241;-52
2023/12/26 07:08:17;;;;;;;0.00;0.00;;;;;;;10.10;100.00;98653.97;5155636;27;20311;-52
2023/12/26 07:11:05;;;;;;;0.00;0.00;;;;;;;10.03;100.00;98658.84;5156700;27;20238;-52
2023/12/26 07:13:52;;;;;;;0.03;0.03;;;;;;;10.04;100.00;98646.47;5156228;27;20228;-52
2023/12/26 07:16:39;;;;;;;0.10;0.10;;;;;;;10.06;100.00;98656.97;5156386;27;20679;-52
2023/12/26 07:19:26;;;;;;;0.00;0.00;;;;;;;9.97;100.00;98672.50;5154887;27;20342;-52
2023/12/26 07:22:13;;;;;;;0.10;0.10;;;;;;;9.93;100.00;98689.53;5156308;27;20193;-52
2023/12/26 07:24:59;;;;;;;0.10;0.10;;;;;;;10.00;100.00;98695.25;5156118;27;20354;-52
2023/12/26 07:27:48;;;;;;;0.00;0.00;;;;;;;9.96;100.00;98707.03;5156204;27;20188;-52
2023/12/26 07:30:35;;;;;;;0.10;0.10;;;;;;;9.98;100.00;98702.47;5156076;27;20215;-52
2023/12/26 07:33:22;;;;;;;0.00;0.00;;;;;;;9.92;100.00;98721.38;5155889;27;20209;-52
2023/12/26 07:36:11;;;;;;;0.00;0.00;;;;;;;9.99;100.00;98717.38;5154672;27;20192;-52
2023/12/26 07:38:57;;;;;;;0.10;0.10;;;;;;;9.87;100.00;98710.28;5155856;27;20314;-52
2023/12/26 07:41:44;;;;;;;0.00;0.00;;;;;;;9.96;100.00;98712.31;5155817;27;20197;-52
2023/12/26 07:44:33;;;;;;;0.00;0.00;;;;;;;9.96;100.00;98713.16;5155533;27;20209;-52
2023/12/26 07:47:19;;;;;;;0.00;0.00;;;;;;;9.81;100.00;98719.47;5155770;27;20188;-52
2023/12/26 07:50:07;;;;;;;0.00;0.00;;;;;;;9.74;100.00;98728.78;5154304;27;20262;-52
2023/12/26 07:52:55;;;;;;;0.10;0.10;;;;;;;9.73;100.00;98743.78;5155626;27;20200;-52
2023/12/26 07:55:42;;;;;;;0.00;0.00;;;;;;;9.67;100.00;98752.16;5155689;27;20196;-52
2023/12/26 07:58:30;;;;;;;0.10;0.10;;;;;;;9.73;100.00;98756.16;5155605;27;20204;-52
2023/12/26 08:01:18;;;;;;;0.00;0.00;;;;;;;9.81;100.00;98767.09;5155473;27;20226;-52
2023/12/26 08:04:05;;;;;;;0.00;0.00;;;;;;;9.79;100.00;98773.44;5155312;27;20193;-52
2023/12/26 08:06:52;;;;;;;0.00;0.00;;;;;;;9.78;100.00;98769.94;5155449;27;20268;-52
2023/12/26 08:09:38;;;;;;;0.00;0.00;;;;;;;9.82;100.00;98767.94;5155271;27;20554;-52
2023/12/26 08:12:25;;;;;;;0.00;0.00;;;;;;;9.83;100.00;98780.19;5155020;27;20299;-52
2023/12/26 08:15:12;;;;;;;0.00;0.00;;;;;;;9.79;100.00;98778.72;5154874;27;20188;-52
2023/12/26 08:18:00;;;;;;;0.10;0.10;;;;;;;9.67;100.00;98809.47;5155187;27;20775;-52
2023/12/26 08:20:47;;;;;;;0.10;0.10;;;;;;;9.63;100.00;98813.25;5112553;28;20214;-52
2023/12/26 08:23:36;;;;;;;0.10;0.10;;;;;;;9.61;100.00;98810.72;5113523;28;20209;-52
2023/12/26 08:26:30;;;;;;;0.00;0.00;;;;;;;9.58;100.00;98810.09;5113399;28;20194;-52
2023/12/26 08:29:17;;;;;;;0.10;0.10;;;;;;;9.57;100.00;98821.63;5113852;28;20198;-53
2023/12/26 08:32:05;;;;;;;0.10;0.10;;;;;;;9.63;100.00;98821.19;5113637;28;20279;-52
2023/12/26 08:34:53;;;;;;;0.10;0.10;;;;;;;9.68;100.00;98834.97;5112021;28;20279;-52
2023/12/26 08:37:39;;;;;;;0.10;0.10;;;;;;;9.67;100.00;98835.94;5113644;28;20206;-52
2023/12/26 08:40:26;;;;;;;0.00;0.00;;;;;;;9.65;100.00;98843.09;5113502;28;20198;-52
2023/12/26 08:43:13;;;;;;;0.00;0.00;;;;;;;9.66;100.00;98837.72;5113411;28;20194;-52
2023/12/26 08:46:00;;;;;;;0.00;0.00;;;;;;;9.80;100.00;98835.97;5113470;28;20287;-52
2023/12/26 08:48:47;;;;;;;0.00;0.00;;;;;;;9.83;100.00;98833.94;5113509;28;20206;-52
2023/12/26 08:51:39;;;;;;;0.00;0.00;;;;;;;9.87;100.00;98843.41;5112417;28;20232;-52
2023/12/26 08:54:26;;;;;;;0.10;0.10;;;;;;;9.89;100.00;98833.56;5113295;28;20214;-52
2023/12/26 08:57:13;;;;;;;0.10;0.10;;;;;;;10.06;100.00;98845.66;5113391;28;20259;-53
2023/12/26 09:00:01;;;;;;;0.00;0.00;;;;;;;10.08;100.00;98857.00;5113285;28;20244;-52
2023/12/26 09:02:47;;;;;;;0.00;0.00;;;;;;;10.11;100.00;98862.06;5113310;28;20369;-52
2023/12/26 09:05:49;;;;;;;0.00;0.00;;;;;;;10.22;100.00;98874.59;5112025;28;20189;-52
2023/12/26 09:08:38;;;;;;;0.00;0.00;;;;;;;10.28;100.00;98858.31;5113345;28;20218;-52
2023/12/26 09:11:24;;;;;;;0.00;0.00;;;;;;;10.25;100.00;98850.59;5113239;28;20209;-52
2023/12/26 09:14:13;;;;;;;0.00;0.00;;;;;;;10.31;100.00;98858.09;5112996;28;20291;-52
2023/12/26 09:17:00;;;;;;;0.00;0.00;;;;;;;10.37;100.00;98860.34;5113240;28;20190;-52
2023/12/26 09:19:47;;;;;;;0.00;0.00;;;;;;;10.39;100.00;98876.13;5141605;27;20216;-52
2023/12/26 09:22:33;;;;;;;0.00;0.00;;;;;;;10.43;100.00;98875.00;5154376;27;20188;-52
2023/12/26 09:25:22;;;;;;;0.00;0.00;;;;;;;10.53;100.00;98882.19;5156729;27;20189;-52
2023/12/26 09:28:09;;;;;;;0.00;0.00;;;;;;;10.58;100.00;98890.66;5158518;27;20196;-52
2023/12/26 09:30:56;;;;;;;0.00;0.00;;;;;;;10.76;100.00;98896.50;5157357;27;20199;-52
2023/12/26 09:33:43;;;;;;;0.10;0.10;;;;;;;10.84;100.00;98903.94;5158289;27;20238;-52
2023/12/26 09:36:30;;;;;;;0.00;0.00;;;;;;;10.83;100.00;98881.03;5156924;27;20237;-52
2023/12/26 09:39:16;;;;;;;0.00;0.00;;;;;;;10.87;100.00;98896.59;5158223;27;20196;-52
2023/12/26 09:42:10;;;;;;;0.00;0.00;;;;;;;10.91;100.00;98904.34;5158282;27;20188;-52
2023/12/26 09:44:58;;;;;;;0.10;0.10;;;;;;;10.95;100.00;98892.56;5158158;27;20544;-52
2023/12/26 09:47:44;;;;;;;0.00;0.00;;;;;;;10.98;100.00;98902.94;5158139;27;20193;-52
2023/12/26 09:50:31;;;;;;;0.00;0.00;;;;;;;10.85;100.00;98895.03;5156684;27;20192;-52
2023/12/26 09:53:23;;;;;;;0.07;0.07;;;;;;;10.71;100.00;98889.81;5157906;27;20686;-52
2023/12/26 09:56:12;;;;;;;0.00;0.00;;;;;;;10.83;100.00;98897.78;5157942;27;20249;-52
2023/12/26 09:59:01;;;;;;;0.10;0.10;;;;;;;10.96;100.00;98903.06;5157967;27;20197;-52
2023/12/26 10:01:49;;;;;;;0.00;0.00;;;;;;;10.81;100.00;98901.50;5156537;27;20314;-52
2023/12/26 10:04:35;;;;;;;0.00;0.00;;;;;;;10.81;100.00;98902.34;5156383;27;20188;-52
2023/12/26 10:07:22;;;;;;;0.00;0.00;;;;;;;11.01;100.00;98897.47;5157647;27;20234;-52
2023/12/26 10:10:11;;;;;;;0.00;0.00;;;;;;;11.35;100.00;98893.25;5157586;27;20193;-52
2023/12/26 10:12:59;;;;;;;0.10;0.10;;;;;;;12.35;100.00;98889.47;5157456;27;20188;-52
2023/12/26 10:15:47;;;;;;;0.00;0.00;;;;;;;12.87;100.00;98881.84;5157292;27;20220;-53
2023/12/26 10:18:34;;;;;;;0.10;0.10;;;;;;;13.53;100.00;98881.16;5157469;27;20278;-52
2023/12/26 10:21:21;;;;;;;0.10;0.10;;;;;;;14.13;100.00;98879.75;5155915;27;20188;-53
2023/12/26 10:24:09;;;;;;;0.10;0.10;;;;;;;14.76;100.00;98875.31;5157425;27;20188;-52
2023/12/26 10:26:56;;;;;;;0.10;0.10;;;;;;;15.64;100.00;98862.22;5157419;27;20212;-52
2023/12/26 10:29:51;;;;;;;0.10;0.10;;;;;;;15.80;100.00;98866.19;5157194;27;20197;-52
2023/12/26 10:32:39;;;;;;;0.00;0.00;;;;;;;16.20;100.00;98871.41;5157328;27;20290;-52
2023/12/26 10:35:26;;;;;;;0.10;0.10;;;;;;;16.07;100.00;98877.03;5154939;27;20220;-52
2023/12/26 10:38:12;;;;;;;0.00;0.00;;;;;;;16.73;100.00;98873.66;5156862;27;20249;-52
2023/12/26 10:41:01;;;;;;;0.00;0.00;;;;;;;17.08;100.00;98873.84;5157080;27;20192;-53
2023/12/26 10:43:50;;;;;;;0.10;0.10;;;;;;;15.62;100.00;98879.34;5156805;27;20266;-52
2023/12/26 10:46:39;;;;;;;0.10;0.10;;;;;;;14.17;100.00;98868.69;5157017;27;20189;-52
2023/12/26 10:49:27;;;;;;;0.10;0.10;;;;;;;13.95;100.00;98874.13;5155458;27;20537;-53
2023/12/26 10:52:19;;;;;;;0.10;0.10;;;;;;;13.74;100.00;98887.38;5156863;27;20262;-52
2023/12/26 10:55:08;;;;;;;0.10;0.10;;;;;;;13.82;100.00;98900.06;5156542;27;20800;-53
2023/12/26 10:57:57;;;;;;;0.10;0.10;;;;;;;12.71;100.00;98891.13;5155707;27;20197;-52
2023/12/26 11:00:43;;;;;;;0.10;0.10;;;;;;;12.04;100.00;98892.59;5155671;27;20208;-52
2023/12/26 11:03:30;;;;;;;0.10;0.10;;;;;;;12.01;100.00;98889.34;5156103;27;20309;-52
2023/12/26 11:06:18;;;;;;;0.10;0.10;;;;;;;11.80;100.00;98894.44;5155293;27;20754;-52
2023/12/26 11:09:07;;;;;;;0.10;0.10;;;;;;;11.41;100.00;98893.66;5156526;27;20728;-52
2023/12/26 11:11:52;;;;;;;0.07;0.07;;;;;;;11.34;100.00;98900.38;5156434;27;20247;-51
2023/12/26 11:14:40;;;;;;;0.10;0.10;;;;;;;11.25;100.00;98900.16;5156381;27;20258;-52
2023/12/26 11:17:26;;;;;;;0.10;0.10;;;;;;;11.39;100.00;98911.50;5156197;27;20208;-52
2023/12/26 11:20:12;;;;;;;0.10;0.10;;;;;;;11.44;100.00;98917.31;5154589;27;20326;-52
2023/12/26 11:23:00;;;;;;;0.00;0.00;;;;;;;11.30;100.00;98908.66;5156223;27;20221;-52
2023/12/26 11:25:48;;;;;;;0.10;0.10;;;;;;;11.28;100.00;98927.31;5154905;27;20192;-52
2023/12/26 11:28:35;;;;;;;0.00;0.00;;;;;;;11.26;100.00;98923.06;5156243;27;20188;-51
2023/12/26 11:31:21;;;;;;;0.10;0.10;;;;;;;11.24;100.00;98917.03;5156035;27;20239;-52
2023/12/26 11:34:13;;;;;;;0.00;0.00;;;;;;;11.15;100.00;98931.78;5154796;27;20188;-52
2023/12/26 11:37:00;;;;;;;0.10;0.10;;;;;;;11.16;100.00;98915.75;5155520;27;20197;-51
2023/12/26 11:39:47;;;;;;;0.10;0.10;;;;;;;11.40;100.00;98910.53;5156120;27;20192;-52
2023/12/26 11:42:34;;;;;;;0.10;0.10;;;;;;;11.25;100.00;98932.84;5154523;27;20196;-52
2023/12/26 11:45:20;;;;;;;0.00;0.00;;;;;;;11.31;100.00;98921.81;5155725;27;20204;-52
2023/12/26 11:48:07;;;;;;;0.10;0.10;;;;;;;11.27;100.00;98922.09;5155368;27;20212;-52
2023/12/26 11:50:53;;;;;;;0.10;0.10;;;;;;;11.39;100.00;98927.41;5154324;27;20667;-51
2023/12/26 11:53:40;;;;;;;0.00;0.00;;;;;;;11.51;100.00;98920.38;5155623;27;20246;-51
2023/12/26 11:56:27;;;;;;;0.10;0.10;;;;;;;11.53;100.00;98920.28;5155286;27;20702;-52
2023/12/26 11:59:14;;;;;;;0.10;0.10;;;;;;;11.64;100.00;98918.53;5155496;27;20185;-52
2023/12/26 12:01:59;;;;;;;0.10;0.10;;;;;;;11.91;100.00;98925.47;5155426;27;20196;-52
2023/12/26 12:04:46;;;;;;;0.10;0.10;;;;;;;11.80;100.00;98928.09;5154151;27;20679;-51
2023/12/26 12:07:32;;;;;;;0.10;0.10;;;;;;;11.81;100.00;98933.28;5155316;27;20308;-52
2023/12/26 12:10:19;;;;;;;0.10;0.10;;;;;;;12.28;100.00;98935.09;5155407;27;20257;-52
2023/12/26 12:13:07;;;;;;;0.10;0.10;;;;;;;12.94;100.00;98938.06;5155327;27;20196;-51
2023/12/26 12:15:55;;;;;;;0.10;0.10;;;;;;;13.17;100.00;98939.75;5155060;27;20217;-51
2023/12/26 12:18:41;;;;;;;0.10;0.10;;;;;;;12.70;100.00;98927.47;5154987;27;20228;-52
2023/12/26 12:21:37;;;;;;;0.10;0.10;;;;;;;14.12;100.00;98931.34;5154242;27;20192;-52
2023/12/26 12:24:23;;;;;;;0.10;0.10;;;;;;;13.76;100.00;98920.03;5154941;27;20192;-52
2023/12/26 12:27:14;;;;;;;0.10;0.10;;;;;;;14.44;100.00;98928.66;5154945;27;20219;-52
2023/12/26 12:30:01;;;;;;;0.10;0.10;;;;;;;13.48;100.00;98937.38;5155093;27;20227;-52
2023/12/26 12:32:49;;;;;;;0.10;0.10;;;;;;;12.42;100.00;98919.91;5154517;27;20217;-52
2023/12/26 12:35:35;;;;;;;0.10;0.10;;;;;;;12.15;100.00;98936.09;5153358;27;20223;-51
2023/12/26 12:38:21;;;;;;;0.10;0.10;;;;;;;11.81;100.00;98933.28;5154870;27;20196;-52
2023/12/26 12:41:07;;;;;;;0.10;0.10;;;;;;;12.00;100.00;98940.75;5154612;27;20230;-52
2023/12/26 12:43:54;;;;;;;0.10;0.10;;;;;;;11.94;100.00;98939.38;5154880;27;20210;-51
2023/12/26 12:46:41;;;;;;;0.10;0.10;;;;;;;12.07;100.00;98949.09;5154715;27;20739;-52
2023/12/26 12:49:28;;;;;;;0.10;0.10;;;;;;;11.81;100.00;98948.34;5153359;27;20193;-51
2023/12/26 12:52:14;;;;;;;0.10;0.10;;;;;;;11.77;100.00;98942.34;5154645;27;20238;-51
2023/12/26 12:55:01;;;;;;;0.10;0.10;;;;;;;11.72;100.00;98950.66;5154608;27;20555;-52
2023/12/26 12:57:47;;;;;;;0.00;0.00;;;;;;;11.73;100.00;98935.59;5153622;27;20193;-52
2023/12/26 13:00:34;;;;;;;0.10;0.10;;;;;;;11.72;100.00;98940.06;5153837;27;20196;-52